Terminal Aerodrome Forecast
Issued by NWS North Platte, NE

Home | Current Version | Previous Version | Graphics & Text | Print | Product List | Glossary On
Versions: 1 2 3 4 5 6 7 8 9 10 11 12
000
FTUS43 KLBF 221700
TAFVTN
TAF
KVTN 221720Z 2218/2318 32009KT P6SM FEW040 SCT120
     FM230000 VRB05KT P6SM SKC
     FM231500 19010KT P6SM SCT050=

USA.gov is the U.S. government's official web portal to all federal, state and local government web resources and services.